sensor_id;sensor_type;location;lat;lon;timestamp;temperature;humidity
8332;DHT22;4203;48.144;14.118;2023-08-17T00:01:07;17.80;99.90
8332;DHT22;4203;48.144;14.118;2023-08-17T00:03:34;17.80;99.90
8332;DHT22;4203;48.144;14.118;2023-08-17T00:06:01;17.80;99.90
8332;DHT22;4203;48.144;14.118;2023-08-17T00:08:29;17.90;99.90
8332;DHT22;4203;48.144;14.118;2023-08-17T00:10:56;17.90;99.90
8332;DHT22;4203;48.144;14.118;2023-08-17T00:13:23;17.80;99.90
8332;DHT22;4203;48.144;14.118;2023-08-17T00:15:52;17.80;99.90
8332;DHT22;4203;48.144;14.118;2023-08-17T00:18:19;17.70;99.90
8332;DHT22;4203;48.144;14.118;2023-08-17T00:20:46;17.70;99.90
8332;DHT22;4203;48.144;14.118;2023-08-17T00:23:14;17.70;99.90
8332;DHT22;4203;48.144;14.118;2023-08-17T00:25:42;17.60;99.90
8332;DHT22;4203;48.144;14.118;2023-08-17T00:28:09;17.60;99.90
8332;DHT22;4203;48.144;14.118;2023-08-17T00:30:36;17.50;99.90
8332;DHT22;4203;48.144;14.118;2023-08-17T00:33:05;17.50;99.90
8332;DHT22;4203;48.144;14.118;2023-08-17T00:35:32;17.50;99.90
8332;DHT22;4203;48.144;14.118;2023-08-17T00:38:00;17.50;99.90
8332;DHT22;4203;48.144;14.118;2023-08-17T00:40:27;17.50;99.90
8332;DHT22;4203;48.144;14.118;2023-08-17T00:42:54;17.40;99.90
8332;DHT22;4203;48.144;14.118;2023-08-17T00:45:22;17.40;99.90
8332;DHT22;4203;48.144;14.118;2023-08-17T00:47:50;17.30;99.90
8332;DHT22;4203;48.144;14.118;2023-08-17T00:50:19;17.30;99.90
8332;DHT22;4203;48.144;14.118;2023-08-17T00:52:46;17.30;99.90
8332;DHT22;4203;48.144;14.118;2023-08-17T00:55:14;17.30;99.90
8332;DHT22;4203;48.144;14.118;2023-08-17T00:57:41;17.30;99.90
8332;DHT22;4203;48.144;14.118;2023-08-17T01:00:09;17.20;99.90
8332;DHT22;4203;48.144;14.118;2023-08-17T01:02:37;17.20;99.90
8332;DHT22;4203;48.144;14.118;2023-08-17T01:05:05;17.10;99.90
8332;DHT22;4203;48.144;14.118;2023-08-17T01:07:34;17.10;99.90
8332;DHT22;4203;48.144;14.118;2023-08-17T01:10:04;17.10;99.90
8332;DHT22;4203;48.144;14.118;2023-08-17T01:12:36;17.10;99.90
8332;DHT22;4203;48.144;14.118;2023-08-17T01:15:09;17.10;99.90
8332;DHT22;4203;48.144;14.118;2023-08-17T01:17:42;17.10;99.90
8332;DHT22;4203;48.144;14.118;2023-08-17T01:20:10;17.10;99.90
8332;DHT22;4203;48.144;14.118;2023-08-17T01:22:41;17.20;99.90
8332;DHT22;4203;48.144;14.118;2023-08-17T01:25:10;17.10;99.90
8332;DHT22;4203;48.144;14.118;2023-08-17T01:27:40;17.10;99.90
8332;DHT22;4203;48.144;14.118;2023-08-17T01:30:09;17.00;99.90
8332;DHT22;4203;48.144;14.118;2023-08-17T01:32:41;16.90;99.90
8332;DHT22;4203;48.144;14.118;2023-08-17T01:35:16;16.90;99.90
8332;DHT22;4203;48.144;14.118;2023-08-17T01:37:45;16.90;99.90
8332;DHT22;4203;48.144;14.118;2023-08-17T01:40:15;16.90;99.90
8332;DHT22;4203;48.144;14.118;2023-08-17T01:42:42;16.90;99.90
8332;DHT22;4203;48.144;14.118;2023-08-17T01:45:11;16.80;99.90
8332;DHT22;4203;48.144;14.118;2023-08-17T01:47:38;16.70;99.90
8332;DHT22;4203;48.144;14.118;2023-08-17T01:50:06;16.70;99.90
8332;DHT22;4203;48.144;14.118;2023-08-17T01:52:33;16.70;99.90
8332;DHT22;4203;48.144;14.118;2023-08-17T01:55:01;16.60;99.90
8332;DHT22;4203;48.144;14.118;2023-08-17T01:57:29;16.60;99.90
8332;DHT22;4203;48.144;14.118;2023-08-17T01:59:56;16.60;99.90
8332;DHT22;4203;48.144;14.118;2023-08-17T02:02:24;16.60;99.90
8332;DHT22;4203;48.144;14.118;2023-08-17T02:04:51;16.60;99.90
8332;DHT22;4203;48.144;14.118;2023-08-17T02:07:18;16.60;99.90
8332;DHT22;4203;48.144;14.118;2023-08-17T02:09:45;16.60;99.90
8332;DHT22;4203;48.144;14.118;2023-08-17T02:12:12;16.50;99.90
8332;DHT22;4203;48.144;14.118;2023-08-17T02:14:41;16.40;99.90
8332;DHT22;4203;48.144;14.118;2023-08-17T02:17:08;16.40;99.90
8332;DHT22;4203;48.144;14.118;2023-08-17T02:19:35;16.30;99.90
8332;DHT22;4203;48.144;14.118;2023-08-17T02:22:02;16.30;99.90
8332;DHT22;4203;48.144;14.118;2023-08-17T02:24:31;16.30;99.90
8332;DHT22;4203;48.144;14.118;2023-08-17T02:26:58;16.20;99.90
8332;DHT22;4203;48.144;14.118;2023-08-17T02:29:25;16.20;99.90
8332;DHT22;4203;48.144;14.118;2023-08-17T02:31:54;16.30;99.90
8332;DHT22;4203;48.144;14.118;2023-08-17T02:34:23;16.30;99.90
8332;DHT22;4203;48.144;14.118;2023-08-17T02:36:50;16.30;99.90
8332;DHT22;4203;48.144;14.118;2023-08-17T02:39:17;16.20;99.90
8332;DHT22;4203;48.144;14.118;2023-08-17T02:41:44;16.20;99.90
8332;DHT22;4203;48.144;14.118;2023-08-17T02:44:14;16.20;99.90
8332;DHT22;4203;48.144;14.118;2023-08-17T02:46:42;16.20;99.90
8332;DHT22;4203;48.144;14.118;2023-08-17T02:49:10;16.20;99.90
8332;DHT22;4203;48.144;14.118;2023-08-17T02:51:37;16.10;99.90
8332;DHT22;4203;48.144;14.118;2023-08-17T02:54:05;16.10;99.90
8332;DHT22;4203;48.144;14.118;2023-08-17T02:56:32;16.00;99.90
8332;DHT22;4203;48.144;14.118;2023-08-17T02:58:59;16.00;99.90
8332;DHT22;4203;48.144;14.118;2023-08-17T03:01:26;16.00;99.90
8332;DHT22;4203;48.144;14.118;2023-08-17T03:03:55;16.00;99.90
8332;DHT22;4203;48.144;14.118;2023-08-17T03:06:24;16.00;99.90
8332;DHT22;4203;48.144;14.118;2023-08-17T03:08:51;16.10;99.90
8332;DHT22;4203;48.144;14.118;2023-08-17T03:11:20;16.10;99.90
8332;DHT22;4203;48.144;14.118;2023-08-17T03:13:47;16.20;99.90
8332;DHT22;4203;48.144;14.118;2023-08-17T03:16:14;16.20;99.90
8332;DHT22;4203;48.144;14.118;2023-08-17T03:18:42;16.20;99.90
8332;DHT22;4203;48.144;14.118;2023-08-17T03:21:09;16.20;99.90
8332;DHT22;4203;48.144;14.118;2023-08-17T03:23:38;16.20;99.90
8332;DHT22;4203;48.144;14.118;2023-08-17T03:26:05;16.20;99.90
8332;DHT22;4203;48.144;14.118;2023-08-17T03:28:32;16.10;99.90
8332;DHT22;4203;48.144;14.118;2023-08-17T03:30:59;16.00;99.90
8332;DHT22;4203;48.144;14.118;2023-08-17T03:33:26;16.00;99.90
8332;DHT22;4203;48.144;14.118;2023-08-17T03:35:54;15.90;99.90
8332;DHT22;4203;48.144;14.118;2023-08-17T03:38:21;16.00;99.90
8332;DHT22;4203;48.144;14.118;2023-08-17T03:40:49;16.00;99.90
8332;DHT22;4203;48.144;14.118;2023-08-17T03:43:17;16.00;99.90
8332;DHT22;4203;48.144;14.118;2023-08-17T03:45:44;16.00;99.90
8332;DHT22;4203;48.144;14.118;2023-08-17T03:48:11;15.90;99.90
8332;DHT22;4203;48.144;14.118;2023-08-17T03:50:38;15.80;99.90
8332;DHT22;4203;48.144;14.118;2023-08-17T03:53:06;15.80;99.90
8332;DHT22;4203;48.144;14.118;2023-08-17T03:55:33;15.80;99.90
8332;DHT22;4203;48.144;14.118;2023-08-17T03:58:01;15.70;99.90
8332;DHT22;4203;48.144;14.118;2023-08-17T04:00:28;15.70;99.90
8332;DHT22;4203;48.144;14.118;2023-08-17T04:02:56;15.70;99.90
8332;DHT22;4203;48.144;14.118;2023-08-17T04:05:23;15.60;99.90
8332;DHT22;4203;48.144;14.118;2023-08-17T04:07:50;15.70;99.90
8332;DHT22;4203;48.144;14.118;2023-08-17T04:10:17;15.70;99.90
8332;DHT22;4203;48.144;14.118;2023-08-17T04:12:44;15.60;99.90
8332;DHT22;4203;48.144;14.118;2023-08-17T04:15:13;15.60;99.90
8332;DHT22;4203;48.144;14.118;2023-08-17T04:17:40;15.60;99.90
8332;DHT22;4203;48.144;14.118;2023-08-17T04:20:08;15.60;99.90
8332;DHT22;4203;48.144;14.118;2023-08-17T04:22:35;15.60;99.90
8332;DHT22;4203;48.144;14.118;2023-08-17T04:25:03;15.60;99.90
8332;DHT22;4203;48.144;14.118;2023-08-17T04:27:30;15.60;99.90
8332;DHT22;4203;48.144;14.118;2023-08-17T04:29:57;15.70;99.90
8332;DHT22;4203;48.144;14.118;2023-08-17T04:32:26;15.80;99.90
8332;DHT22;4203;48.144;14.118;2023-08-17T04:35:02;15.80;99.90
8332;DHT22;4203;48.144;14.118;2023-08-17T04:37:29;15.80;99.90
8332;DHT22;4203;48.144;14.118;2023-08-17T04:39:56;15.90;99.90
8332;DHT22;4203;48.144;14.118;2023-08-17T04:42:24;15.90;99.90
8332;DHT22;4203;48.144;14.118;2023-08-17T04:44:51;16.00;99.90
8332;DHT22;4203;48.144;14.118;2023-08-17T04:47:18;16.10;99.90
8332;DHT22;4203;48.144;14.118;2023-08-17T04:49:47;16.30;99.90
8332;DHT22;4203;48.144;14.118;2023-08-17T04:52:14;16.30;99.90
8332;DHT22;4203;48.144;14.118;2023-08-17T04:54:43;16.40;99.90
8332;DHT22;4203;48.144;14.118;2023-08-17T04:57:10;16.50;99.90
8332;DHT22;4203;48.144;14.118;2023-08-17T04:59:37;16.60;99.90
8332;DHT22;4203;48.144;14.118;2023-08-17T05:02:04;16.70;99.90
8332;DHT22;4203;48.144;14.118;2023-08-17T05:04:40;16.70;99.90
8332;DHT22;4203;48.144;14.118;2023-08-17T05:07:09;16.80;99.90
8332;DHT22;4203;48.144;14.118;2023-08-17T05:09:36;16.80;99.90
8332;DHT22;4203;48.144;14.118;2023-08-17T05:12:04;16.90;99.90
8332;DHT22;4203;48.144;14.118;2023-08-17T05:14:31;17.00;99.90
8332;DHT22;4203;48.144;14.118;2023-08-17T05:16:58;17.00;99.90
8332;DHT22;4203;48.144;14.118;2023-08-17T05:19:25;17.10;99.90
8332;DHT22;4203;48.144;14.118;2023-08-17T05:21:53;17.10;99.90
8332;DHT22;4203;48.144;14.118;2023-08-17T05:24:21;17.20;99.90
8332;DHT22;4203;48.144;14.118;2023-08-17T05:26:49;17.30;99.90
8332;DHT22;4203;48.144;14.118;2023-08-17T05:29:16;17.40;99.90
8332;DHT22;4203;48.144;14.118;2023-08-17T05:31:43;17.50;99.90
8332;DHT22;4203;48.144;14.118;2023-08-17T05:34:11;17.60;99.90
8332;DHT22;4203;48.144;14.118;2023-08-17T05:36:38;17.70;99.90
8332;DHT22;4203;48.144;14.118;2023-08-17T05:39:06;17.80;99.90
8332;DHT22;4203;48.144;14.118;2023-08-17T05:41:35;18.00;99.90
8332;DHT22;4203;48.144;14.118;2023-08-17T05:44:02;18.10;99.90
8332;DHT22;4203;48.144;14.118;2023-08-17T05:46:32;18.20;99.90
8332;DHT22;4203;48.144;14.118;2023-08-17T05:49:00;18.40;99.90
8332;DHT22;4203;48.144;14.118;2023-08-17T05:51:27;18.50;99.90
8332;DHT22;4203;48.144;14.118;2023-08-17T05:53:54;18.70;99.90
8332;DHT22;4203;48.144;14.118;2023-08-17T05:56:21;18.80;99.90
8332;DHT22;4203;48.144;14.118;2023-08-17T05:58:50;19.00;99.90
8332;DHT22;4203;48.144;14.118;2023-08-17T06:01:17;19.10;99.90
8332;DHT22;4203;48.144;14.118;2023-08-17T06:03:44;19.30;99.90
8332;DHT22;4203;48.144;14.118;2023-08-17T06:06:12;19.40;99.90
8332;DHT22;4203;48.144;14.118;2023-08-17T06:08:39;19.60;99.90
8332;DHT22;4203;48.144;14.118;2023-08-17T06:11:06;19.70;99.90
8332;DHT22;4203;48.144;14.118;2023-08-17T06:13:33;19.90;99.90
8332;DHT22;4203;48.144;14.118;2023-08-17T06:16:03;20.00;99.90
8332;DHT22;4203;48.144;14.118;2023-08-17T06:18:30;20.20;99.90
8332;DHT22;4203;48.144;14.118;2023-08-17T06:20:58;20.40;99.90
8332;DHT22;4203;48.144;14.118;2023-08-17T06:23:25;20.50;99.90
8332;DHT22;4203;48.144;14.118;2023-08-17T06:25:55;20.60;99.90
8332;DHT22;4203;48.144;14.118;2023-08-17T06:28:23;20.80;99.90
8332;DHT22;4203;48.144;14.118;2023-08-17T06:30:51;20.90;99.90
8332;DHT22;4203;48.144;14.118;2023-08-17T06:33:21;21.00;99.90
8332;DHT22;4203;48.144;14.118;2023-08-17T06:35:48;21.10;99.90
8332;DHT22;4203;48.144;14.118;2023-08-17T06:38:16;21.30;99.90
8332;DHT22;4203;48.144;14.118;2023-08-17T06:40:43;21.20;99.90
8332;DHT22;4203;48.144;14.118;2023-08-17T06:43:10;21.20;99.90
8332;DHT22;4203;48.144;14.118;2023-08-17T06:45:37;21.30;99.90
8332;DHT22;4203;48.144;14.118;2023-08-17T06:48:05;21.50;99.90
8332;DHT22;4203;48.144;14.118;2023-08-17T06:50:34;21.60;99.90
8332;DHT22;4203;48.144;14.118;2023-08-17T06:53:01;21.80;99.90
8332;DHT22;4203;48.144;14.118;2023-08-17T06:55:29;21.80;99.90
8332;DHT22;4203;48.144;14.118;2023-08-17T06:57:57;21.90;99.90
8332;DHT22;4203;48.144;14.118;2023-08-17T07:00:24;22.10;99.90
8332;DHT22;4203;48.144;14.118;2023-08-17T07:02:51;22.50;99.90
8332;DHT22;4203;48.144;14.118;2023-08-17T07:05:19;22.70;99.90
8332;DHT22;4203;48.144;14.118;2023-08-17T07:07:47;22.80;99.90
8332;DHT22;4203;48.144;14.118;2023-08-17T07:10:14;22.90;99.90
8332;DHT22;4203;48.144;14.118;2023-08-17T07:12:42;23.10;99.90
8332;DHT22;4203;48.144;14.118;2023-08-17T07:15:09;23.30;99.90
8332;DHT22;4203;48.144;14.118;2023-08-17T07:17:37;23.50;99.90
8332;DHT22;4203;48.144;14.118;2023-08-17T07:20:05;23.50;99.90
8332;DHT22;4203;48.144;14.118;2023-08-17T07:22:33;23.60;99.90
8332;DHT22;4203;48.144;14.118;2023-08-17T07:25:02;23.80;99.90
8332;DHT22;4203;48.144;14.118;2023-08-17T07:27:29;23.90;99.90
8332;DHT22;4203;48.144;14.118;2023-08-17T07:29:56;24.00;99.90
8332;DHT22;4203;48.144;14.118;2023-08-17T07:32:23;24.30;99.90
8332;DHT22;4203;48.144;14.118;2023-08-17T07:34:51;24.60;99.90
8332;DHT22;4203;48.144;14.118;2023-08-17T07:37:20;24.90;99.90
8332;DHT22;4203;48.144;14.118;2023-08-17T07:39:47;25.10;99.90
8332;DHT22;4203;48.144;14.118;2023-08-17T07:42:16;25.30;99.90
8332;DHT22;4203;48.144;14.118;2023-08-17T07:44:43;25.20;99.90
8332;DHT22;4203;48.144;14.118;2023-08-17T07:47:10;25.20;99.90
8332;DHT22;4203;48.144;14.118;2023-08-17T07:49:37;25.40;99.90
8332;DHT22;4203;48.144;14.118;2023-08-17T07:52:04;25.60;99.90
8332;DHT22;4203;48.144;14.118;2023-08-17T07:54:33;25.60;99.90
8332;DHT22;4203;48.144;14.118;2023-08-17T07:57:00;25.50;99.90
8332;DHT22;4203;48.144;14.118;2023-08-17T07:59:30;25.60;99.90
8332;DHT22;4203;48.144;14.118;2023-08-17T08:01:57;25.90;99.90
8332;DHT22;4203;48.144;14.118;2023-08-17T08:04:24;25.90;99.90
8332;DHT22;4203;48.144;14.118;2023-08-17T08:06:51;26.00;99.90
8332;DHT22;4203;48.144;14.118;2023-08-17T08:09:18;25.90;99.90
8332;DHT22;4203;48.144;14.118;2023-08-17T08:11:47;25.70;99.90
8332;DHT22;4203;48.144;14.118;2023-08-17T08:14:14;25.40;99.90
8332;DHT22;4203;48.144;14.118;2023-08-17T08:16:42;25.40;99.90
8332;DHT22;4203;48.144;14.118;2023-08-17T08:19:09;25.60;99.90
8332;DHT22;4203;48.144;14.118;2023-08-17T08:21:37;25.80;99.90
8332;DHT22;4203;48.144;14.118;2023-08-17T08:24:05;26.20;99.90
8332;DHT22;4203;48.144;14.118;2023-08-17T08:26:32;26.50;99.90
8332;DHT22;4203;48.144;14.118;2023-08-17T08:28:59;26.90;99.90
8332;DHT22;4203;48.144;14.118;2023-08-17T08:31:27;27.30;99.90
8332;DHT22;4203;48.144;14.118;2023-08-17T08:33:55;27.80;99.90
8332;DHT22;4203;48.144;14.118;2023-08-17T08:36:23;28.00;99.90
8332;DHT22;4203;48.144;14.118;2023-08-17T08:38:50;28.20;99.90
8332;DHT22;4203;48.144;14.118;2023-08-17T08:41:17;28.50;99.90
8332;DHT22;4203;48.144;14.118;2023-08-17T08:43:45;28.50;99.90
8332;DHT22;4203;48.144;14.118;2023-08-17T08:46:13;28.60;99.90
8332;DHT22;4203;48.144;14.118;2023-08-17T08:48:43;28.80;99.90
8332;DHT22;4203;48.144;14.118;2023-08-17T08:51:16;28.90;99.90
8332;DHT22;4203;48.144;14.118;2023-08-17T08:53:45;28.90;99.90
8332;DHT22;4203;48.144;14.118;2023-08-17T08:56:13;28.90;99.90
8332;DHT22;4203;48.144;14.118;2023-08-17T08:58:42;29.20;99.90
8332;DHT22;4203;48.144;14.118;2023-08-17T09:01:10;29.40;99.90
8332;DHT22;4203;48.144;14.118;2023-08-17T09:03:38;29.60;99.90
8332;DHT22;4203;48.144;14.118;2023-08-17T09:06:05;29.90;99.90
8332;DHT22;4203;48.144;14.118;2023-08-17T09:08:36;30.00;99.90
8332;DHT22;4203;48.144;14.118;2023-08-17T09:11:03;29.80;99.90
8332;DHT22;4203;48.144;14.118;2023-08-17T09:13:30;29.90;99.90
8332;DHT22;4203;48.144;14.118;2023-08-17T09:15:59;29.60;99.90
8332;DHT22;4203;48.144;14.118;2023-08-17T09:18:26;29.50;99.90
8332;DHT22;4203;48.144;14.118;2023-08-17T09:20:54;29.70;99.90
8332;DHT22;4203;48.144;14.118;2023-08-17T09:23:22;29.90;99.90
8332;DHT22;4203;48.144;14.118;2023-08-17T09:25:51;30.00;99.90
8332;DHT22;4203;48.144;14.118;2023-08-17T09:28:23;30.30;99.90
8332;DHT22;4203;48.144;14.118;2023-08-17T09:30:56;30.60;99.90
8332;DHT22;4203;48.144;14.118;2023-08-17T09:33:24;30.70;99.90
8332;DHT22;4203;48.144;14.118;2023-08-17T09:35:53;30.80;99.90
8332;DHT22;4203;48.144;14.118;2023-08-17T09:38:21;30.80;99.90
8332;DHT22;4203;48.144;14.118;2023-08-17T09:40:48;30.80;99.90
8332;DHT22;4203;48.144;14.118;2023-08-17T09:43:18;30.20;99.90
8332;DHT22;4203;48.144;14.118;2023-08-17T09:45:47;29.90;99.90
8332;DHT22;4203;48.144;14.118;2023-08-17T09:48:16;30.00;99.90
8332;DHT22;4203;48.144;14.118;2023-08-17T09:50:45;30.40;99.90
8332;DHT22;4203;48.144;14.118;2023-08-17T09:53:13;30.90;99.90
8332;DHT22;4203;48.144;14.118;2023-08-17T09:55:41;31.10;99.90
8332;DHT22;4203;48.144;14.118;2023-08-17T09:58:09;31.30;99.90
8332;DHT22;4203;48.144;14.118;2023-08-17T10:00:44;31.70;99.90
8332;DHT22;4203;48.144;14.118;2023-08-17T10:03:14;31.90;99.90
8332;DHT22;4203;48.144;14.118;2023-08-17T10:05:42;32.20;99.90
8332;DHT22;4203;48.144;14.118;2023-08-17T10:08:11;32.40;99.90
8332;DHT22;4203;48.144;14.118;2023-08-17T10:10:42;32.40;99.90
8332;DHT22;4203;48.144;14.118;2023-08-17T10:13:11;32.40;99.90
8332;DHT22;4203;48.144;14.118;2023-08-17T10:15:47;32.40;99.90
8332;DHT22;4203;48.144;14.118;2023-08-17T10:18:22;32.60;99.90
8332;DHT22;4203;48.144;14.118;2023-08-17T10:20:59;32.80;99.90
8332;DHT22;4203;48.144;14.118;2023-08-17T10:23:28;32.60;99.90
8332;DHT22;4203;48.144;14.118;2023-08-17T10:25:56;32.00;99.90
8332;DHT22;4203;48.144;14.118;2023-08-17T10:28:24;31.60;99.90
8332;DHT22;4203;48.144;14.118;2023-08-17T10:30:53;31.70;99.90
8332;DHT22;4203;48.144;14.118;2023-08-17T10:33:21;32.10;99.90
8332;DHT22;4203;48.144;14.118;2023-08-17T10:35:48;32.50;99.90
8332;DHT22;4203;48.144;14.118;2023-08-17T10:38:15;32.70;99.90
8332;DHT22;4203;48.144;14.118;2023-08-17T10:40:43;33.20;99.90
8332;DHT22;4203;48.144;14.118;2023-08-17T10:43:11;33.50;99.90
8332;DHT22;4203;48.144;14.118;2023-08-17T10:45:38;33.70;99.90
8332;DHT22;4203;48.144;14.118;2023-08-17T10:48:28;33.70;99.90
8332;DHT22;4203;48.144;14.118;2023-08-17T10:51:01;33.90;99.90
8332;DHT22;4203;48.144;14.118;2023-08-17T10:53:36;34.00;99.90
8332;DHT22;4203;48.144;14.118;2023-08-17T10:56:11;34.00;99.90
8332;DHT22;4203;48.144;14.118;2023-08-17T10:58:38;33.90;99.90
8332;DHT22;4203;48.144;14.118;2023-08-17T11:01:06;34.10;99.90
8332;DHT22;4203;48.144;14.118;2023-08-17T11:03:35;34.30;99.90
8332;DHT22;4203;48.144;14.118;2023-08-17T11:06:15;34.40;99.90
8332;DHT22;4203;48.144;14.118;2023-08-17T11:08:53;34.50;99.90
8332;DHT22;4203;48.144;14.118;2023-08-17T11:11:22;34.10;99.90
8332;DHT22;4203;48.144;14.118;2023-08-17T11:13:49;34.00;99.90
8332;DHT22;4203;48.144;14.118;2023-08-17T11:16:17;34.00;99.90
8332;DHT22;4203;48.144;14.118;2023-08-17T11:18:47;34.20;99.90
8332;DHT22;4203;48.144;14.118;2023-08-17T11:21:15;34.40;99.90
8332;DHT22;4203;48.144;14.118;2023-08-17T11:23:43;34.50;99.90
8332;DHT22;4203;48.144;14.118;2023-08-17T11:26:11;34.40;99.90
8332;DHT22;4203;48.144;14.118;2023-08-17T11:28:38;34.40;99.90
8332;DHT22;4203;48.144;14.118;2023-08-17T11:31:07;34.20;99.90
8332;DHT22;4203;48.144;14.118;2023-08-17T11:33:35;33.90;99.90
8332;DHT22;4203;48.144;14.118;2023-08-17T11:36:06;33.50;99.90
8332;DHT22;4203;48.144;14.118;2023-08-17T11:38:35;32.90;99.90
8332;DHT22;4203;48.144;14.118;2023-08-17T11:41:03;33.00;99.90
8332;DHT22;4203;48.144;14.118;2023-08-17T11:43:32;33.50;99.90
8332;DHT22;4203;48.144;14.118;2023-08-17T11:46:00;33.80;99.90
8332;DHT22;4203;48.144;14.118;2023-08-17T11:48:28;34.10;99.90
8332;DHT22;4203;48.144;14.118;2023-08-17T11:50:55;34.40;99.90
8332;DHT22;4203;48.144;14.118;2023-08-17T11:53:25;34.50;99.60
8332;DHT22;4203;48.144;14.118;2023-08-17T11:55:59;33.90;99.90
8332;DHT22;4203;48.144;14.118;2023-08-17T11:58:36;33.70;99.90
8332;DHT22;4203;48.144;14.118;2023-08-17T12:01:09;33.60;99.90
8332;DHT22;4203;48.144;14.118;2023-08-17T12:03:37;33.90;99.90
8332;DHT22;4203;48.144;14.118;2023-08-17T12:06:05;34.10;99.90
8332;DHT22;4203;48.144;14.118;2023-08-17T12:08:33;34.50;99.90
8332;DHT22;4203;48.144;14.118;2023-08-17T12:11:02;34.40;99.90
8332;DHT22;4203;48.144;14.118;2023-08-17T12:13:31;34.10;99.90
8332;DHT22;4203;48.144;14.118;2023-08-17T12:15:58;33.90;99.90
8332;DHT22;4203;48.144;14.118;2023-08-17T12:18:26;34.20;99.90
8332;DHT22;4203;48.144;14.118;2023-08-17T12:20:53;34.60;99.90
8332;DHT22;4203;48.144;14.118;2023-08-17T12:23:21;34.90;99.90
8332;DHT22;4203;48.144;14.118;2023-08-17T12:25:54;35.10;99.90
8332;DHT22;4203;48.144;14.118;2023-08-17T12:28:22;35.10;99.90
8332;DHT22;4203;48.144;14.118;2023-08-17T12:30:57;35.10;99.90
8332;DHT22;4203;48.144;14.118;2023-08-17T12:33:25;35.10;99.90
8332;DHT22;4203;48.144;14.118;2023-08-17T12:35:52;35.10;99.90
8332;DHT22;4203;48.144;14.118;2023-08-17T12:38:19;35.00;99.50
8332;DHT22;4203;48.144;14.118;2023-08-17T12:40:46;34.90;99.90
8332;DHT22;4203;48.144;14.118;2023-08-17T12:43:15;35.00;99.90
8332;DHT22;4203;48.144;14.118;2023-08-17T12:45:42;35.10;99.90
8332;DHT22;4203;48.144;14.118;2023-08-17T12:48:09;35.40;99.90
8332;DHT22;4203;48.144;14.118;2023-08-17T12:50:36;35.30;97.60
8332;DHT22;4203;48.144;14.118;2023-08-17T12:53:04;35.10;99.00
8332;DHT22;4203;48.144;14.118;2023-08-17T12:55:31;34.90;98.70
8332;DHT22;4203;48.144;14.118;2023-08-17T12:57:58;34.80;98.60
8332;DHT22;4203;48.144;14.118;2023-08-17T13:00:26;34.80;95.50
8332;DHT22;4203;48.144;14.118;2023-08-17T13:02:54;34.50;99.20
8332;DHT22;4203;48.144;14.118;2023-08-17T13:05:21;34.60;98.10
8332;DHT22;4203;48.144;14.118;2023-08-17T13:07:48;34.80;97.60
8332;DHT22;4203;48.144;14.118;2023-08-17T13:10:15;34.90;98.90
8332;DHT22;4203;48.144;14.118;2023-08-17T13:12:42;35.10;96.00
8332;DHT22;4203;48.144;14.118;2023-08-17T13:15:09;34.80;99.30
8332;DHT22;4203;48.144;14.118;2023-08-17T13:17:38;34.80;99.90
8332;DHT22;4203;48.144;14.118;2023-08-17T13:20:06;34.80;98.70
8332;DHT22;4203;48.144;14.118;2023-08-17T13:22:35;34.90;98.10
8332;DHT22;4203;48.144;14.118;2023-08-17T13:25:02;35.10;97.40
8332;DHT22;4203;48.144;14.118;2023-08-17T13:27:29;35.10;98.20
8332;DHT22;4203;48.144;14.118;2023-08-17T13:29:57;35.00;96.50
8332;DHT22;4203;48.144;14.118;2023-08-17T13:32:24;34.80;94.70
8332;DHT22;4203;48.144;14.118;2023-08-17T13:34:54;34.30;95.20
8332;DHT22;4203;48.144;14.118;2023-08-17T13:37:21;33.80;96.40
8332;DHT22;4203;48.144;14.118;2023-08-17T13:39:49;33.50;98.90
8332;DHT22;4203;48.144;14.118;2023-08-17T13:42:16;33.50;97.70
8332;DHT22;4203;48.144;14.118;2023-08-17T13:44:43;33.60;97.40
8332;DHT22;4203;48.144;14.118;2023-08-17T13:47:11;33.50;98.40
8332;DHT22;4203;48.144;14.118;2023-08-17T13:49:38;33.40;96.70
8332;DHT22;4203;48.144;14.118;2023-08-17T13:52:07;33.30;98.00
8332;DHT22;4203;48.144;14.118;2023-08-17T13:54:34;33.40;98.70
8332;DHT22;4203;48.144;14.118;2023-08-17T13:57:01;33.60;99.10
8332;DHT22;4203;48.144;14.118;2023-08-17T13:59:28;33.70;98.20
8332;DHT22;4203;48.144;14.118;2023-08-17T14:01:56;33.80;97.50
8332;DHT22;4203;48.144;14.118;2023-08-17T14:04:23;33.80;97.50
8332;DHT22;4203;48.144;14.118;2023-08-17T14:06:50;33.60;97.60
8332;DHT22;4203;48.144;14.118;2023-08-17T14:09:19;33.70;97.10
8332;DHT22;4203;48.144;14.118;2023-08-17T14:11:46;33.70;96.80
8332;DHT22;4203;48.144;14.118;2023-08-17T14:14:14;33.40;96.30
8332;DHT22;4203;48.144;14.118;2023-08-17T14:16:42;33.20;98.70
8332;DHT22;4203;48.144;14.118;2023-08-17T14:19:10;32.90;96.10
8332;DHT22;4203;48.144;14.118;2023-08-17T14:21:37;32.50;98.00
8332;DHT22;4203;48.144;14.118;2023-08-17T14:24:05;32.40;99.00
8332;DHT22;4203;48.144;14.118;2023-08-17T14:26:35;32.20;99.90
8332;DHT22;4203;48.144;14.118;2023-08-17T14:29:03;32.20;99.90
8332;DHT22;4203;48.144;14.118;2023-08-17T14:31:30;32.30;98.80
8332;DHT22;4203;48.144;14.118;2023-08-17T14:33:57;32.30;97.50
8332;DHT22;4203;48.144;14.118;2023-08-17T14:36:24;32.30;99.70
8332;DHT22;4203;48.144;14.118;2023-08-17T14:38:51;32.30;99.70
8332;DHT22;4203;48.144;14.118;2023-08-17T14:41:19;32.20;99.90
8332;DHT22;4203;48.144;14.118;2023-08-17T14:43:47;32.20;99.50
8332;DHT22;4203;48.144;14.118;2023-08-17T14:46:14;32.20;99.90
8332;DHT22;4203;48.144;14.118;2023-08-17T14:48:42;32.00;99.90
8332;DHT22;4203;48.144;14.118;2023-08-17T14:51:09;31.90;98.20
8332;DHT22;4203;48.144;14.118;2023-08-17T14:53:36;31.80;99.70
8332;DHT22;4203;48.144;14.118;2023-08-17T14:56:03;31.70;99.90
8332;DHT22;4203;48.144;14.118;2023-08-17T14:58:30;31.60;99.80
8332;DHT22;4203;48.144;14.118;2023-08-17T15:00:58;31.60;99.90
8332;DHT22;4203;48.144;14.118;2023-08-17T15:03:26;31.50;99.90
8332;DHT22;4203;48.144;14.118;2023-08-17T15:05:53;31.50;99.90
8332;DHT22;4203;48.144;14.118;2023-08-17T15:08:20;31.50;99.90
8332;DHT22;4203;48.144;14.118;2023-08-17T15:10:48;31.30;99.90
8332;DHT22;4203;48.144;14.118;2023-08-17T15:13:15;31.10;99.90
8332;DHT22;4203;48.144;14.118;2023-08-17T15:15:43;30.90;99.90
8332;DHT22;4203;48.144;14.118;2023-08-17T15:18:11;30.90;99.90
8332;DHT22;4203;48.144;14.118;2023-08-17T15:20:38;30.70;99.90
8332;DHT22;4203;48.144;14.118;2023-08-17T15:23:06;30.60;99.90
8332;DHT22;4203;48.144;14.118;2023-08-17T15:25:34;30.40;99.90
8332;DHT22;4203;48.144;14.118;2023-08-17T15:28:01;30.40;99.90
8332;DHT22;4203;48.144;14.118;2023-08-17T15:30:28;30.30;99.90
8332;DHT22;4203;48.144;14.118;2023-08-17T15:32:55;30.20;99.90
8332;DHT22;4203;48.144;14.118;2023-08-17T15:35:24;30.20;99.90
8332;DHT22;4203;48.144;14.118;2023-08-17T15:37:52;30.10;99.90
8332;DHT22;4203;48.144;14.118;2023-08-17T15:40:19;30.10;99.90
8332;DHT22;4203;48.144;14.118;2023-08-17T15:42:46;29.90;99.90
8332;DHT22;4203;48.144;14.118;2023-08-17T15:45:13;29.80;99.90
8332;DHT22;4203;48.144;14.118;2023-08-17T15:47:43;29.70;99.90
8332;DHT22;4203;48.144;14.118;2023-08-17T15:50:10;29.50;99.90